createdAt,value
2023-05-06T00:03:25.177Z,7.43
2023-05-06T00:07:27.452Z,6.45
2023-05-06T00:11:29.445Z,7.15
2023-05-06T00:15:32.187Z,6.93
2023-05-06T00:19:34.524Z,7.55
2023-05-06T00:23:36.412Z,7.22
2023-05-06T00:27:39.127Z,6.38
2023-05-06T00:31:41.190Z,6.47
2023-05-06T00:35:43.026Z,6.50
2023-05-06T00:39:44.777Z,7.70
2023-05-06T00:43:46.742Z,7.15
2023-05-06T00:47:48.672Z,6.60
2023-05-06T00:51:51.598Z,7.07
2023-05-06T00:55:53.512Z,6.63
2023-05-06T00:59:55.480Z,6.53
2023-05-06T01:03:58.958Z,7.55
2023-05-06T01:08:21.663Z,6.50
2023-05-06T01:12:34.284Z,7.45
2023-05-06T01:16:39.245Z,7.18
2023-05-06T01:20:42.395Z,6.90
2023-05-06T01:24:45.237Z,6.57
2023-05-06T01:28:47.141Z,6.88
2023-05-06T01:33:10.993Z,6.05
2023-05-06T01:37:32.538Z,8.07
2023-05-06T01:41:38.143Z,6.70
2023-05-06T01:45:42.022Z,6.22
2023-05-06T01:49:44.083Z,6.88
2023-05-06T01:53:46.302Z,6.78
2023-05-06T01:57:48.079Z,6.82
2023-05-06T02:01:50.030Z,7.75
2023-05-06T02:05:51.953Z,7.03
2023-05-06T02:09:55.791Z,7.57
2023-05-06T02:13:58.449Z,8.02
2023-05-06T02:18:00.428Z,8.48
2023-05-06T02:22:02.364Z,8.20
2023-05-06T02:26:04.629Z,8.00
2023-05-06T02:30:08.536Z,8.55
2023-05-06T02:34:11.238Z,7.45
2023-05-06T02:38:13.089Z,8.50
2023-05-06T02:42:16.121Z,8.07
2023-05-06T02:46:17.979Z,8.35
2023-05-06T02:50:20.574Z,9.00
2023-05-06T02:54:22.391Z,8.68
2023-05-06T02:58:24.729Z,8.65
2023-05-06T03:02:26.531Z,9.00
2023-05-06T03:06:28.576Z,9.50
2023-05-06T03:10:30.408Z,10.02
2023-05-06T03:14:33.477Z,9.52
2023-05-06T03:18:35.446Z,10.25
2023-05-06T03:22:37.447Z,9.95
2023-05-06T03:26:39.614Z,9.07
2023-05-06T03:30:43.184Z,10.27
2023-05-06T03:34:45.108Z,9.18
2023-05-06T03:38:52.194Z,9.93
2023-05-06T03:42:54.350Z,10.18
2023-05-06T03:46:57.638Z,9.27
2023-05-06T03:51:00.201Z,10.25
2023-05-06T03:55:02.078Z,10.45
2023-05-06T03:59:06.073Z,10.07
2023-05-06T04:03:08.221Z,10.48
2023-05-06T04:07:17.242Z,10.90
2023-05-06T04:11:19.263Z,10.13
2023-05-06T04:15:23.177Z,10.48
2023-05-06T04:19:25.783Z,10.60
2023-05-06T04:23:28.043Z,11.48
2023-05-06T04:27:32.397Z,10.60
2023-05-06T04:31:37.090Z,10.05
2023-05-06T04:35:51.369Z,10.48
2023-05-06T04:39:54.652Z,10.25
2023-05-06T04:43:57.065Z,11.30
2023-05-06T04:47:59.735Z,11.70
2023-05-06T04:52:02.125Z,11.27
2023-05-06T04:56:04.874Z,10.27
2023-05-06T05:00:10.844Z,10.93
2023-05-06T05:04:13.475Z,12.00
2023-05-06T05:08:15.529Z,11.13
2023-05-06T05:12:17.388Z,11.02
2023-05-06T05:16:22.881Z,11.25
2023-05-06T05:20:24.893Z,10.57
2023-05-06T05:24:26.821Z,10.13
2023-05-06T05:28:28.801Z,9.95
2023-05-06T05:32:31.659Z,11.32
2023-05-06T05:36:33.505Z,11.20
2023-05-06T05:40:38.441Z,11.38
2023-05-06T05:44:41.303Z,10.38
2023-05-06T05:48:43.936Z,10.60
2023-05-06T05:52:46.438Z,11.93
2023-05-06T05:56:48.753Z,10.45
2023-05-06T06:00:51.242Z,11.65
2023-05-06T06:04:54.882Z,12.02
2023-05-06T06:08:56.724Z,12.23
2023-05-06T06:12:59.197Z,12.40
2023-05-06T06:17:03.748Z,12.32
2023-05-06T06:21:05.781Z,13.27
2023-05-06T06:25:08.242Z,12.82
2023-05-06T06:29:10.222Z,13.13
2023-05-06T06:33:12.270Z,13.00
2023-05-06T06:37:15.153Z,13.18
2023-05-06T06:41:17.086Z,14.75
2023-05-06T06:45:19.100Z,13.82
2023-05-06T06:49:21.157Z,13.45
2023-05-06T06:53:23.027Z,12.93
2023-05-06T06:57:24.847Z,13.30
2023-05-06T07:01:26.738Z,13.07
2023-05-06T07:05:28.585Z,12.45
2023-05-06T07:09:30.443Z,12.90
2023-05-06T07:13:32.376Z,12.85
2023-05-06T07:17:34.261Z,12.82
2023-05-06T07:21:36.249Z,13.50
2023-05-06T07:25:38.110Z,12.68
2023-05-06T07:29:40.055Z,11.43
2023-05-06T07:33:42.590Z,12.07
2023-05-06T07:37:46.560Z,11.40
2023-05-06T07:41:48.316Z,11.95
2023-05-06T07:45:50.291Z,10.75
2023-05-06T07:49:52.202Z,11.27
2023-05-06T07:53:54.219Z,10.82
2023-05-06T07:57:56.042Z,10.30
2023-05-06T08:01:57.869Z,9.65
2023-05-06T08:06:00.433Z,9.50
2023-05-06T08:10:02.389Z,9.55
2023-05-06T08:14:04.276Z,10.30
2023-05-06T08:18:20.837Z,9.40
2023-05-06T08:22:23.940Z,8.23
2023-05-06T08:26:26.012Z,8.65
2023-05-06T08:30:28.795Z,8.02
2023-05-06T08:34:30.597Z,7.70
2023-05-06T08:38:32.421Z,5.93
2023-05-06T08:42:37.116Z,6.03
2023-05-06T08:46:38.921Z,7.53
2023-05-06T08:50:44.299Z,6.30
2023-05-06T08:54:46.441Z,5.00
2023-05-06T08:58:50.101Z,7.15
2023-05-06T09:02:52.042Z,8.40
2023-05-06T09:06:54.191Z,8.07
2023-05-06T09:10:56.065Z,7.07
2023-05-06T09:14:57.960Z,5.53
2023-05-06T09:18:59.806Z,4.70
2023-05-06T09:23:02.469Z,6.50
2023-05-06T09:27:04.857Z,4.75
2023-05-06T09:31:07.155Z,3.97
2023-05-06T09:35:10.850Z,6.03
2023-05-06T09:39:12.708Z,4.22
2023-05-06T09:43:15.831Z,3.95
2023-05-06T09:47:18.005Z,4.00
2023-05-06T09:51:20.732Z,4.70
2023-05-06T09:55:27.008Z,4.10
2023-05-06T09:59:30.850Z,3.67
2023-05-06T10:03:34.117Z,4.18
2023-05-06T10:07:36.704Z,4.80
2023-05-06T10:11:39.003Z,3.90
2023-05-06T10:15:42.607Z,3.92
2023-05-06T10:19:46.390Z,5.22
2023-05-06T10:23:56.646Z,4.88
2023-05-06T10:27:59.146Z,5.18
2023-05-06T10:32:03.530Z,4.93
2023-05-06T10:36:20.690Z,5.45
2023-05-06T10:40:24.249Z,5.60
2023-05-06T10:45:01.596Z,5.97
2023-05-06T10:49:11.329Z,6.72
2023-05-06T10:53:17.728Z,6.47
2023-05-06T10:57:22.742Z,6.63
2023-05-06T11:01:28.630Z,7.05
2023-05-06T11:05:30.678Z,6.57
2023-05-06T11:09:32.471Z,6.78
2023-05-06T11:13:35.414Z,7.03
2023-05-06T11:17:38.761Z,6.50
2023-05-06T11:21:40.752Z,7.03
2023-05-06T11:25:43.460Z,6.78
2023-05-06T11:29:45.580Z,7.93
2023-05-06T11:33:55.268Z,7.55
2023-05-06T11:37:57.350Z,7.38
2023-05-06T11:42:00.962Z,8.43
2023-05-06T11:46:02.955Z,8.13
2023-05-06T11:50:07.831Z,10.07
2023-05-06T11:54:11.333Z,8.88
2023-05-06T11:58:18.494Z,8.82
2023-05-06T12:02:20.599Z,8.80
2023-05-06T12:06:34.096Z,8.50
2023-05-06T12:10:37.100Z,6.20
2023-05-06T12:14:39.812Z,4.65
2023-05-06T12:18:41.755Z,5.10
2023-05-06T12:22:43.571Z,4.35
2023-05-06T12:26:47.278Z,4.22
2023-05-06T12:30:49.092Z,3.67
2023-05-06T12:34:50.968Z,3.78
2023-05-06T12:38:54.593Z,4.20
2023-05-06T12:42:56.473Z,4.68
2023-05-06T12:47:02.670Z,4.22
2023-05-06T12:51:21.810Z,5.00
2023-05-06T12:55:25.929Z,4.68
2023-05-06T12:59:27.939Z,4.05
2023-05-06T13:03:29.997Z,3.95
2023-05-06T13:07:31.843Z,3.95
2023-05-06T13:11:33.662Z,4.05
2023-05-06T13:15:35.839Z,3.53
2023-05-06T13:19:37.853Z,3.72
2023-05-06T13:23:46.934Z,3.60
2023-05-06T13:27:49.092Z,3.83
2023-05-06T13:31:51.672Z,4.93
2023-05-06T13:35:53.609Z,4.10
2023-05-06T13:39:55.539Z,4.40
2023-05-06T13:43:57.395Z,3.95
2023-05-06T13:47:59.170Z,4.38
2023-05-06T13:52:01.405Z,3.42
2023-05-06T13:56:03.328Z,3.70
2023-05-06T14:00:07.614Z,4.22
2023-05-06T14:04:09.363Z,3.67
2023-05-06T14:08:11.265Z,3.78
2023-05-06T14:12:13.069Z,4.03
2023-05-06T14:16:16.769Z,4.80
2023-05-06T14:20:18.678Z,4.40
2023-05-06T14:24:20.617Z,3.42
2023-05-06T14:28:22.387Z,3.75
2023-05-06T14:32:24.278Z,4.10
2023-05-06T14:36:26.133Z,3.80
2023-05-06T14:40:28.070Z,3.58
2023-05-06T14:44:29.931Z,3.40
2023-05-06T14:48:32.150Z,3.47
2023-05-06T14:52:33.950Z,3.50
2023-05-06T14:56:36.142Z,3.63
2023-05-06T15:00:38.138Z,3.25
2023-05-06T15:04:39.949Z,2.97
2023-05-06T15:08:41.834Z,3.85
2023-05-06T15:12:43.793Z,3.40
2023-05-06T15:16:46.174Z,2.72
2023-05-06T15:20:48.159Z,5.50
2023-05-06T15:24:49.981Z,5.30
2023-05-06T15:28:51.816Z,5.55
2023-05-06T15:32:53.750Z,5.97
2023-05-06T15:36:55.751Z,6.60
2023-05-06T15:40:57.571Z,6.38
2023-05-06T15:44:59.665Z,6.78
2023-05-06T15:53:06.256Z,6.40
2023-05-06T15:57:08.136Z,6.15
2023-05-06T16:01:10.981Z,8.15
2023-05-06T16:05:12.941Z,7.05
2023-05-06T16:09:14.927Z,7.65
2023-05-06T16:13:16.901Z,6.90
2023-05-06T16:17:18.754Z,7.13
2023-05-06T16:21:20.865Z,8.57
2023-05-06T16:25:23.319Z,7.75
2023-05-06T16:29:25.150Z,6.60
2023-05-06T16:33:27.018Z,7.00
2023-05-06T16:37:29.348Z,6.90
2023-05-06T16:41:31.160Z,7.63
2023-05-06T16:45:33.315Z,9.15
2023-05-06T16:49:35.220Z,7.75
2023-05-06T16:53:37.063Z,8.10
2023-05-06T16:57:38.859Z,8.60
2023-05-06T17:01:40.676Z,8.43
2023-05-06T17:05:42.482Z,8.25
2023-05-06T17:09:44.515Z,7.97
2023-05-06T17:13:46.377Z,8.23
2023-05-06T17:17:48.264Z,9.07
2023-05-06T17:21:50.531Z,8.90
2023-05-06T17:25:52.415Z,10.73
2023-05-06T17:29:54.411Z,9.30
2023-05-06T17:33:57.616Z,8.77
2023-05-06T17:37:59.744Z,9.40
2023-05-06T17:42:02.782Z,9.80
2023-05-06T17:46:04.751Z,10.85
2023-05-06T17:50:07.039Z,11.30
2023-05-06T17:54:08.833Z,10.95
2023-05-06T17:58:10.664Z,12.65
2023-05-06T18:02:16.000Z,12.65
2023-05-06T18:06:17.811Z,12.05
2023-05-06T18:10:19.960Z,13.27
2023-05-06T18:14:21.902Z,12.32
2023-05-06T18:18:23.720Z,12.13
2023-05-06T18:22:25.732Z,12.00
2023-05-06T18:26:43.237Z,12.82
2023-05-06T18:30:46.323Z,13.52
2023-05-06T18:34:48.149Z,12.63
2023-05-06T18:38:49.971Z,12.07
2023-05-06T18:42:51.842Z,12.27
2023-05-06T18:46:53.835Z,12.43
2023-05-06T18:50:55.690Z,12.63
2023-05-06T18:54:57.725Z,14.30
2023-05-06T18:58:59.983Z,12.82
2023-05-06T19:03:01.861Z,12.80
2023-05-06T19:07:03.744Z,12.18
2023-05-06T19:11:05.749Z,13.23
2023-05-06T19:15:08.300Z,12.65
2023-05-06T19:19:10.569Z,11.85
2023-05-06T19:23:12.384Z,13.38
2023-05-06T19:27:14.196Z,13.23
2023-05-06T19:31:15.989Z,11.18
2023-05-06T19:35:17.845Z,10.98
2023-05-06T19:39:21.565Z,11.07
2023-05-06T19:43:23.716Z,13.10
2023-05-06T19:47:29.501Z,12.02
2023-05-06T19:51:31.499Z,10.50
2023-05-06T19:55:33.436Z,11.82
2023-05-06T19:59:35.319Z,12.45
2023-05-06T20:03:37.877Z,11.65
2023-05-06T20:07:39.808Z,11.23
2023-05-06T20:11:41.703Z,10.85
2023-05-06T20:15:44.203Z,9.77
2023-05-06T20:19:46.956Z,9.88
2023-05-06T20:23:48.770Z,10.65
2023-05-06T20:27:51.033Z,10.50
2023-05-06T20:31:52.859Z,9.15
2023-05-06T20:35:55.637Z,9.85
2023-05-06T20:39:58.278Z,9.75
2023-05-06T20:44:00.112Z,9.45
2023-05-06T20:48:05.121Z,8.32
2023-05-06T20:52:08.050Z,8.55
2023-05-06T20:56:21.044Z,8.60
2023-05-06T21:00:22.835Z,8.52
2023-05-06T21:04:24.804Z,9.18
2023-05-06T21:08:26.611Z,8.60
2023-05-06T21:12:28.435Z,10.52
2023-05-06T21:16:30.447Z,10.00
2023-05-06T21:20:32.262Z,10.55
2023-05-06T21:24:34.310Z,10.55
2023-05-06T21:28:37.265Z,12.00
2023-05-06T21:32:39.206Z,12.70
2023-05-06T21:36:41.063Z,13.30
2023-05-06T21:40:42.853Z,13.68
2023-05-06T21:44:44.796Z,14.95
2023-05-06T21:48:46.612Z,15.30
2023-05-06T21:52:48.457Z,13.32
2023-05-06T21:56:50.255Z,15.98
2023-05-06T22:00:52.622Z,15.93
2023-05-06T22:04:54.450Z,15.38
2023-05-06T22:08:56.250Z,17.30
2023-05-06T22:12:58.397Z,16.02
2023-05-06T22:17:00.297Z,15.80
2023-05-06T22:21:03.441Z,16.13
2023-05-06T22:25:06.072Z,18.08
2023-05-06T22:29:07.987Z,17.55
2023-05-06T22:33:10.029Z,16.45
2023-05-06T22:37:11.988Z,15.60
2023-05-06T22:41:13.842Z,13.10
2023-05-06T22:45:15.931Z,13.80
2023-05-06T22:49:19.811Z,11.25
2023-05-06T22:53:21.635Z,11.40
2023-05-06T22:57:25.485Z,13.23
2023-05-06T23:01:32.316Z,10.52
2023-05-06T23:05:34.301Z,10.88
2023-05-06T23:09:36.112Z,11.73
2023-05-06T23:13:37.940Z,11.05
2023-05-06T23:17:39.834Z,11.65
2023-05-06T23:21:41.959Z,10.85
2023-05-06T23:25:43.759Z,12.02
2023-05-06T23:29:45.581Z,12.82
2023-05-06T23:33:47.582Z,12.27
2023-05-06T23:37:49.392Z,12.50
2023-05-06T23:41:51.263Z,13.80
2023-05-06T23:45:53.144Z,13.02
2023-05-06T23:49:55.017Z,14.15
2023-05-06T23:53:56.806Z,14.00
2023-05-06T23:57:58.601Z,15.88
